createdAt,value
2018-08-28T00:00:25.931Z,98.66
2018-08-28T00:01:26.265Z,98.38
2018-08-28T00:02:25.949Z,98.57
2018-08-28T00:03:26.785Z,98.00
2018-08-28T00:04:25.870Z,97.71
2018-08-28T00:05:25.860Z,97.90
2018-08-28T00:06:25.837Z,98.00
2018-08-28T00:07:25.822Z,98.19
2018-08-28T00:08:26.109Z,99.05
2018-08-28T00:09:25.845Z,98.00
2018-08-28T00:10:25.838Z,98.28
2018-08-28T00:11:25.813Z,98.28
2018-08-28T00:12:25.745Z,98.38
2018-08-28T00:13:25.748Z,98.76
2018-08-28T00:14:25.720Z,99.05
2018-08-28T00:15:26.000Z,98.76
2018-08-28T00:16:25.785Z,99.05
2018-08-28T00:17:25.674Z,99.33
2018-08-28T00:18:25.654Z,99.05
2018-08-28T00:19:25.638Z,99.24
2018-08-28T00:20:25.623Z,98.95
2018-08-28T00:21:25.608Z,98.66
2018-08-28T00:22:26.073Z,99.62
2018-08-28T00:23:25.630Z,99.43
2018-08-28T00:24:25.612Z,99.62
2018-08-28T00:25:25.546Z,99.81
2018-08-28T00:26:25.611Z,98.95
2018-08-28T00:27:25.599Z,99.33
2018-08-28T00:28:25.579Z,98.57
2018-08-28T00:29:25.915Z,98.76
2018-08-28T00:30:25.540Z,98.66
2018-08-28T00:31:25.531Z,98.66
2018-08-28T00:32:25.510Z,98.76
2018-08-28T00:33:25.425Z,99.15
2018-08-28T00:34:25.474Z,99.43
2018-08-28T00:35:25.491Z,98.95
2018-08-28T00:36:25.676Z,98.76
2018-08-28T00:37:25.359Z,98.86
2018-08-28T00:38:25.344Z,98.76
2018-08-28T00:39:25.330Z,99.24
2018-08-28T00:40:25.313Z,99.81
2018-08-28T00:41:25.349Z,98.95
2018-08-28T00:42:25.637Z,98.47
2018-08-28T00:43:25.270Z,98.66
2018-08-28T00:44:25.252Z,99.43
2018-08-28T00:45:25.331Z,98.86
2018-08-28T00:46:25.330Z,98.76
2018-08-28T00:47:25.366Z,98.81
2018-08-28T00:48:25.540Z,99.29
2018-08-28T00:49:25.175Z,99.43
2018-08-28T00:50:25.158Z,99.38
2018-08-28T00:51:25.147Z,99.43
2018-08-28T00:52:25.264Z,99.52
2018-08-28T00:53:25.163Z,99.38
2018-08-28T00:54:25.452Z,99.38
2018-08-28T00:55:25.130Z,99.67
2018-08-28T00:56:25.065Z,99.67
2018-08-28T00:57:25.052Z,99.67
2018-08-28T00:58:25.033Z,99.38
2018-08-28T00:59:25.070Z,99.52
2018-08-28T01:00:25.354Z,99.86
2018-08-28T01:01:24.988Z,99.67
2018-08-28T01:02:24.970Z,99.67
2018-08-28T01:03:24.955Z,99.76
2018-08-28T01:04:25.022Z,99.38
2018-08-28T01:05:25.008Z,99.96
2018-08-28T01:06:25.290Z,99.48
2018-08-28T01:07:24.975Z,99.96
2018-08-28T01:08:24.956Z,99.96
2018-08-28T01:09:24.943Z,99.99
2018-08-28T01:10:24.846Z,99.99
2018-08-28T01:11:24.880Z,99.99
2018-08-28T01:12:25.165Z,99.99
2018-08-28T01:13:24.852Z,99.99
2018-08-28T01:14:24.788Z,99.99
2018-08-28T01:15:24.854Z,99.99
2018-08-28T01:16:24.752Z,99.99
2018-08-28T01:17:24.786Z,99.99
2018-08-28T01:18:25.071Z,99.99
2018-08-28T01:19:24.820Z,99.99
2018-08-28T01:20:24.807Z,99.99
2018-08-28T01:21:24.791Z,99.99
2018-08-28T01:22:24.775Z,99.99
2018-08-28T01:23:24.758Z,99.99
2018-08-28T01:24:24.743Z,99.99
2018-08-28T01:25:24.963Z,99.99
2018-08-28T01:26:24.596Z,99.99
2018-08-28T01:27:24.582Z,99.99
2018-08-28T01:28:24.565Z,99.99
2018-08-28T01:29:24.551Z,99.99
2018-08-28T01:30:24.584Z,99.99
2018-08-28T01:31:24.568Z,99.99
2018-08-28T01:32:24.854Z,99.99
2018-08-28T01:33:24.489Z,99.99
2018-08-28T01:34:24.471Z,99.99
2018-08-28T01:35:24.455Z,99.99
2018-08-28T01:36:24.441Z,99.99
2018-08-28T01:37:24.474Z,99.99
2018-08-28T01:38:24.460Z,99.99
2018-08-28T01:39:24.693Z,99.99
2018-08-28T01:40:24.378Z,99.99
2018-08-28T01:41:24.363Z,99.99
2018-08-28T01:42:24.352Z,99.99
2018-08-28T01:43:24.385Z,99.99
2018-08-28T01:44:24.398Z,99.99
2018-08-28T01:45:24.352Z,99.99
2018-08-28T01:46:24.656Z,99.99
2018-08-28T01:47:24.341Z,99.99
2018-08-28T01:48:24.253Z,99.99
2018-08-28T01:49:24.324Z,99.99
2018-08-28T01:50:24.274Z,99.99
2018-08-28T01:51:24.207Z,99.99
2018-08-28T01:52:24.242Z,99.99
2018-08-28T01:53:24.477Z,99.99
2018-08-28T01:54:24.237Z,99.99
2018-08-28T01:55:24.207Z,99.99
2018-08-28T01:56:24.181Z,99.99
2018-08-28T01:57:24.188Z,99.99
2018-08-28T01:58:24.100Z,99.99
2018-08-28T01:59:24.087Z,99.99
2018-08-28T02:00:24.369Z,99.99
2018-08-28T02:01:24.104Z,99.99
2018-08-28T02:02:24.138Z,99.99
2018-08-28T02:03:24.024Z,99.99
2018-08-28T02:04:24.009Z,99.99
2018-08-28T02:05:24.073Z,99.99
2018-08-28T02:06:23.976Z,99.99
2018-08-28T02:07:24.259Z,99.99
2018-08-28T02:08:23.995Z,99.99
2018-08-28T02:09:23.981Z,99.99
2018-08-28T02:10:23.964Z,99.99
2018-08-28T02:11:23.899Z,99.99
2018-08-28T02:12:23.887Z,99.99
2018-08-28T02:13:24.248Z,99.99
2018-08-28T02:14:23.984Z,99.99
2018-08-28T02:15:23.920Z,99.99
2018-08-28T02:16:23.905Z,99.99
2018-08-28T02:17:23.808Z,99.99
2018-08-28T02:18:23.790Z,99.99
2018-08-28T02:19:24.076Z,99.99
2018-08-28T02:20:23.896Z,99.99
2018-08-28T02:21:23.876Z,99.99
2018-08-28T02:22:23.809Z,99.99
2018-08-28T02:23:23.796Z,99.99
2018-08-28T02:24:23.779Z,99.99
2018-08-28T02:25:24.068Z,99.99
2018-08-28T02:26:23.750Z,99.99
2018-08-28T02:27:23.733Z,99.99
2018-08-28T02:28:23.767Z,99.99
2018-08-28T02:29:23.621Z,99.99
2018-08-28T02:30:23.606Z,99.99
2018-08-28T02:31:23.893Z,99.99
2018-08-28T02:32:23.575Z,99.99
2018-08-28T02:33:23.656Z,99.99
2018-08-28T02:34:23.598Z,99.99
2018-08-28T02:35:23.581Z,99.99
2018-08-28T02:36:23.514Z,99.99
2018-08-28T02:37:23.800Z,99.99
2018-08-28T02:38:23.482Z,99.99
2018-08-28T02:39:36.204Z,99.99
2018-08-28T02:40:23.501Z,99.99
2018-08-28T02:41:23.587Z,99.99
2018-08-28T02:42:23.420Z,99.99
2018-08-28T02:43:23.704Z,99.99
2018-08-28T02:44:23.390Z,99.99
2018-08-28T02:45:23.378Z,99.99
2018-08-28T02:46:23.359Z,99.99
2018-08-28T02:47:23.393Z,99.99
2018-08-28T02:48:23.379Z,99.99
2018-08-28T02:49:23.665Z,99.99
2018-08-28T02:50:23.298Z,99.99
2018-08-28T02:51:23.282Z,99.99
2018-08-28T02:52:23.268Z,99.99
2018-08-28T02:53:23.251Z,99.99
2018-08-28T02:54:33.125Z,99.99
2018-08-28T02:55:23.695Z,99.99
2018-08-28T02:56:23.339Z,99.99
2018-08-28T02:57:23.302Z,99.99
2018-08-28T02:58:23.257Z,99.99
2018-08-28T02:59:23.239Z,99.99
2018-08-28T03:00:23.305Z,99.99
2018-08-28T03:01:23.242Z,99.99
2018-08-28T03:02:23.577Z,99.99
2018-08-28T03:03:23.209Z,99.99
2018-08-28T03:04:23.194Z,99.99
2018-08-28T03:05:23.189Z,99.99
2018-08-28T03:06:23.162Z,99.99
2018-08-28T03:07:23.198Z,99.99
2018-08-28T03:08:23.142Z,99.99
2018-08-28T03:09:23.471Z,99.99
2018-08-28T03:10:23.104Z,99.99
2018-08-28T03:11:23.092Z,99.99
2018-08-28T03:12:23.068Z,99.99
2018-08-28T03:13:23.184Z,99.99
2018-08-28T03:14:23.121Z,99.99
2018-08-28T03:15:23.145Z,99.99
2018-08-28T03:16:23.379Z,99.99
2018-08-28T03:17:23.055Z,99.99
2018-08-28T03:18:22.949Z,99.99
2018-08-28T03:19:22.898Z,99.99
2018-08-28T03:20:22.880Z,99.99
2018-08-28T03:21:22.866Z,99.99
2018-08-28T03:22:22.797Z,99.99
2018-08-28T03:23:23.083Z,99.99
2018-08-28T03:24:22.767Z,99.99
2018-08-28T03:25:22.754Z,99.99
2018-08-28T03:26:22.786Z,99.99
2018-08-28T03:27:22.771Z,99.99
2018-08-28T03:28:22.826Z,99.99
2018-08-28T03:29:22.810Z,99.99
2018-08-28T03:30:23.156Z,99.99
2018-08-28T03:31:22.779Z,99.99
2018-08-28T03:32:22.762Z,99.99
2018-08-28T03:33:22.742Z,99.99
2018-08-28T03:34:22.662Z,99.99
2018-08-28T03:35:22.596Z,99.99
2018-08-28T03:36:22.581Z,99.99
2018-08-28T03:37:22.876Z,99.99
2018-08-28T03:38:22.598Z,99.99
2018-08-28T03:39:22.581Z,99.99
2018-08-28T03:40:22.566Z,99.99
2018-08-28T03:41:22.500Z,99.99
2018-08-28T03:42:22.483Z,99.66
2018-08-28T03:43:22.769Z,99.57
2018-08-28T03:44:22.452Z,99.66
2018-08-28T03:45:22.593Z,99.85
2018-08-28T03:46:22.426Z,99.66
2018-08-28T03:47:22.407Z,99.48
2018-08-28T03:48:22.392Z,99.28
2018-08-28T03:49:22.678Z,99.66
2018-08-28T03:50:22.368Z,98.61
2018-08-28T03:51:22.393Z,99.38
2018-08-28T03:52:22.377Z,99.48
2018-08-28T03:53:22.361Z,99.38
2018-08-28T03:54:22.297Z,99.48
2018-08-28T03:55:22.624Z,98.52
2018-08-28T03:56:22.264Z,98.99
2018-08-28T03:57:22.247Z,99.09
2018-08-28T03:58:22.282Z,98.13
2018-08-28T03:59:22.264Z,98.23
2018-08-28T04:00:22.250Z,98.33
2018-08-28T04:01:22.565Z,98.04
2018-08-28T04:02:22.321Z,98.23
2018-08-28T04:03:22.151Z,98.23
2018-08-28T04:04:22.186Z,98.23
2018-08-28T04:05:22.170Z,98.42
2018-08-28T04:06:22.160Z,97.94
2018-08-28T04:07:22.387Z,97.94
2018-08-28T04:08:22.076Z,98.33
2018-08-28T04:09:22.060Z,98.28
2018-08-28T04:10:22.109Z,97.85
2018-08-28T04:11:22.093Z,97.66
2018-08-28T04:12:22.082Z,97.85
2018-08-28T04:13:22.363Z,97.61
2018-08-28T04:14:22.045Z,97.80
2018-08-28T04:15:22.030Z,97.23
2018-08-28T04:16:22.018Z,97.32
2018-08-28T04:17:22.051Z,97.03
2018-08-28T04:18:21.979Z,96.56
2018-08-28T04:19:22.194Z,96.94
2018-08-28T04:20:21.879Z,96.94
2018-08-28T04:21:21.897Z,96.84
2018-08-28T04:22:21.911Z,96.66
2018-08-28T04:23:21.886Z,96.66
2018-08-28T04:24:21.865Z,96.75
2018-08-28T04:25:21.848Z,96.75
2018-08-28T04:26:22.082Z,96.27
2018-08-28T04:27:21.768Z,96.66
2018-08-28T04:28:21.749Z,96.56
2018-08-28T04:29:21.856Z,96.84
2018-08-28T04:30:21.861Z,96.37
2018-08-28T04:31:21.777Z,95.98
2018-08-28T04:32:21.683Z,96.17
2018-08-28T04:33:21.968Z,96.17
2018-08-28T04:34:21.652Z,96.46
2018-08-28T04:35:21.711Z,96.80
2018-08-28T04:36:21.690Z,96.37
2018-08-28T04:37:21.684Z,96.75
2018-08-28T04:38:21.660Z,96.84
2018-08-28T04:39:21.651Z,96.46
2018-08-28T04:40:21.927Z,96.80
2018-08-28T04:41:21.623Z,96.66
2018-08-28T04:42:21.653Z,96.70
2018-08-28T04:43:21.638Z,96.99
2018-08-28T04:44:21.562Z,97.47
2018-08-28T04:45:21.551Z,96.99
2018-08-28T04:46:21.537Z,97.71
2018-08-28T04:47:21.820Z,97.52
2018-08-28T04:48:21.503Z,97.75
2018-08-28T04:49:21.540Z,97.42
2018-08-28T04:50:21.519Z,97.85
2018-08-28T04:51:21.456Z,98.04
2018-08-28T04:52:21.438Z,97.94
2018-08-28T04:53:21.344Z,98.33
2018-08-28T04:54:21.805Z,98.61
2018-08-28T04:55:21.359Z,98.80
2018-08-28T04:56:21.346Z,98.99
2018-08-28T04:57:21.277Z,98.71
2018-08-28T04:58:21.259Z,98.61
2018-08-28T04:59:21.241Z,98.75
2018-08-28T05:00:21.225Z,98.71
2018-08-28T05:01:21.559Z,98.99
2018-08-28T05:02:21.292Z,99.48
2018-08-28T05:03:21.176Z,99.38
2018-08-28T05:04:21.160Z,99.48
2018-08-28T05:05:21.152Z,99.99
2018-08-28T05:06:21.127Z,99.99
2018-08-28T05:07:21.113Z,99.99
2018-08-28T05:08:21.531Z,99.99
2018-08-28T05:09:21.209Z,99.99
2018-08-28T05:10:21.149Z,99.99
2018-08-28T05:11:21.045Z,99.99
2018-08-28T05:12:21.128Z,99.99
2018-08-28T05:13:21.016Z,99.99
2018-08-28T05:14:21.325Z,99.99
2018-08-28T05:15:21.032Z,99.99
2018-08-28T05:16:21.098Z,99.99
2018-08-28T05:17:20.948Z,99.99
2018-08-28T05:18:20.935Z,99.99
2018-08-28T05:19:20.988Z,99.99
2018-08-28T05:20:21.200Z,99.99
2018-08-28T05:21:20.932Z,99.99
2018-08-28T05:22:20.922Z,99.99
2018-08-28T05:23:20.900Z,99.99
2018-08-28T05:24:20.836Z,99.99
2018-08-28T05:25:20.819Z,99.99
2018-08-28T05:26:21.102Z,99.99
2018-08-28T05:27:20.785Z,99.99
2018-08-28T05:28:20.820Z,99.99
2018-08-28T05:29:20.805Z,99.99
2018-08-28T05:30:20.854Z,99.99
2018-08-28T05:31:20.720Z,99.99
2018-08-28T05:32:21.007Z,99.99
2018-08-28T05:33:20.690Z,99.99
2018-08-28T05:34:20.672Z,99.99
2018-08-28T05:35:20.709Z,99.99
2018-08-28T05:36:20.697Z,99.99
2018-08-28T05:37:20.675Z,99.99
2018-08-28T05:38:20.912Z,99.99
2018-08-28T05:39:20.595Z,99.99
2018-08-28T05:40:20.579Z,99.99
2018-08-28T05:41:20.560Z,99.99
2018-08-28T05:42:20.595Z,99.99
2018-08-28T05:43:20.582Z,99.99
2018-08-28T05:44:20.861Z,99.99
2018-08-28T05:45:20.614Z,99.99
2018-08-28T05:46:20.601Z,99.99
2018-08-28T05:47:20.463Z,99.99
2018-08-28T05:48:20.449Z,99.99
2018-08-28T05:49:20.563Z,99.99
2018-08-28T05:50:20.724Z,99.99
2018-08-28T05:51:20.398Z,99.99
2018-08-28T05:52:20.388Z,99.99
2018-08-28T05:53:20.376Z,99.99
2018-08-28T05:54:20.352Z,99.99
2018-08-28T05:55:20.389Z,99.99
2018-08-28T05:56:20.426Z,99.99
2018-08-28T05:57:20.656Z,99.99
2018-08-28T05:58:20.296Z,99.99
2018-08-28T05:59:20.273Z,99.99
2018-08-28T06:00:20.258Z,99.99
2018-08-28T06:01:20.243Z,99.99
2018-08-28T06:02:20.276Z,99.99
2018-08-28T06:03:20.404Z,99.99
2018-08-28T06:04:20.545Z,99.99
2018-08-28T06:05:20.182Z,99.99
2018-08-28T06:06:20.168Z,99.99
2018-08-28T06:07:20.147Z,99.99
2018-08-28T06:08:20.181Z,99.99
2018-08-28T06:09:20.167Z,99.99
2018-08-28T06:10:20.101Z,99.99
2018-08-28T06:11:20.386Z,99.99
2018-08-28T06:12:20.069Z,99.99
2018-08-28T06:13:20.054Z,99.99
2018-08-28T06:14:20.090Z,99.99
2018-08-28T06:15:20.074Z,99.99
2018-08-28T06:16:20.013Z,99.99
2018-08-28T06:17:20.009Z,99.99
2018-08-28T06:18:20.279Z,99.99
2018-08-28T06:19:19.963Z,99.99
2018-08-28T06:20:20.111Z,99.99
2018-08-28T06:21:19.988Z,99.99
2018-08-28T06:22:19.916Z,99.99
2018-08-28T06:23:19.905Z,99.99
2018-08-28T06:24:19.885Z,99.99
2018-08-28T06:25:20.222Z,99.99
2018-08-28T06:26:21.192Z,99.99
2018-08-28T06:27:19.841Z,99.99
2018-08-28T06:28:19.829Z,99.99
2018-08-28T06:29:19.862Z,99.99
2018-08-28T06:30:19.800Z,99.99
2018-08-28T06:31:19.780Z,99.99
2018-08-28T06:32:20.115Z,99.99
2018-08-28T06:33:19.802Z,99.99
2018-08-28T06:34:19.740Z,99.99
2018-08-28T06:35:19.720Z,99.99
2018-08-28T06:36:19.704Z,99.99
2018-08-28T06:37:19.718Z,99.99
2018-08-28T06:38:19.677Z,99.99
2018-08-28T06:39:20.069Z,99.99
2018-08-28T06:40:19.648Z,99.99
2018-08-28T06:41:19.640Z,99.99
2018-08-28T06:42:19.615Z,99.99
2018-08-28T06:43:19.626Z,99.99
2018-08-28T06:44:19.586Z,99.99
2018-08-28T06:45:19.920Z,99.99
2018-08-28T06:46:19.605Z,99.99
2018-08-28T06:47:20.091Z,99.99
2018-08-28T06:48:19.527Z,99.99
2018-08-28T06:49:19.511Z,99.99
2018-08-28T06:50:19.494Z,99.99
2018-08-28T06:51:19.832Z,99.99
2018-08-28T06:52:19.468Z,99.99
2018-08-28T06:53:19.502Z,99.99
2018-08-28T06:54:19.486Z,99.99
2018-08-28T06:55:19.474Z,99.99
2018-08-28T06:56:19.457Z,99.99
2018-08-28T06:57:19.691Z,99.99
2018-08-28T06:58:19.380Z,99.99
2018-08-28T06:59:19.413Z,99.99
2018-08-28T07:00:19.399Z,99.99
2018-08-28T07:01:19.337Z,99.99
2018-08-28T07:02:19.367Z,99.99
2018-08-28T07:03:19.610Z,99.99
2018-08-28T07:04:19.345Z,99.99
2018-08-28T07:05:19.325Z,99.99
2018-08-28T07:06:19.315Z,99.99
2018-08-28T07:07:19.499Z,99.99
2018-08-28T07:08:19.281Z,99.99
2018-08-28T07:09:19.520Z,99.99
2018-08-28T07:10:19.257Z,99.99
2018-08-28T07:11:19.241Z,99.99
2018-08-28T07:12:19.276Z,99.99
2018-08-28T07:13:19.164Z,99.99
2018-08-28T07:14:19.148Z,99.99
2018-08-28T07:15:19.433Z,99.99
2018-08-28T07:16:19.116Z,99.99
2018-08-28T07:17:19.129Z,99.99
2018-08-28T07:18:21.592Z,99.99
2018-08-28T07:19:19.081Z,99.99
2018-08-28T07:20:19.059Z,99.99
2018-08-28T07:21:19.349Z,99.99
2018-08-28T07:22:19.032Z,99.99
2018-08-28T07:23:19.018Z,99.99
2018-08-28T07:24:19.061Z,99.99
2018-08-28T07:25:19.100Z,99.99
2018-08-28T07:26:18.979Z,99.99
2018-08-28T07:27:19.263Z,99.99
2018-08-28T07:28:18.948Z,99.99
2018-08-28T07:29:18.938Z,99.99
2018-08-28T07:30:18.920Z,99.99
2018-08-28T07:31:18.996Z,99.99
2018-08-28T07:32:18.941Z,99.99
2018-08-28T07:33:18.928Z,99.99
2018-08-28T07:34:19.165Z,99.99
2018-08-28T07:35:18.936Z,99.99
2018-08-28T07:36:18.838Z,99.99
2018-08-28T07:37:18.923Z,99.99
2018-08-28T07:38:18.891Z,99.99
2018-08-28T07:39:18.896Z,99.99
2018-08-28T07:40:18.786Z,99.99
2018-08-28T07:41:19.153Z,99.99
2018-08-28T07:42:18.757Z,99.99
2018-08-28T07:43:18.745Z,99.99
2018-08-28T07:44:18.730Z,99.99
2018-08-28T07:45:18.787Z,99.99
2018-08-28T07:46:18.754Z,99.99
2018-08-28T07:47:18.744Z,99.99
2018-08-28T07:48:19.022Z,99.99
2018-08-28T07:49:18.665Z,99.99
2018-08-28T07:50:18.651Z,99.99
2018-08-28T07:51:18.643Z,99.99
2018-08-28T07:52:18.680Z,99.99
2018-08-28T07:53:18.668Z,99.99
2018-08-28T07:54:18.599Z,99.99
2018-08-28T07:55:18.892Z,99.99
2018-08-28T07:56:18.572Z,99.99
2018-08-28T07:57:18.561Z,99.99
2018-08-28T07:58:18.547Z,99.99
2018-08-28T07:59:18.584Z,99.99
2018-08-28T08:00:18.572Z,99.99
2018-08-28T08:01:18.530Z,99.99
2018-08-28T08:02:18.798Z,99.99
2018-08-28T08:03:18.483Z,99.99
2018-08-28T08:04:18.476Z,99.99
2018-08-28T08:05:18.509Z,99.99
2018-08-28T08:06:18.558Z,99.99
2018-08-28T08:07:18.437Z,99.99
2018-08-28T08:08:18.425Z,99.99
2018-08-28T08:09:18.761Z,99.99
2018-08-28T08:10:18.406Z,99.99
2018-08-28T08:11:18.387Z,99.99
2018-08-28T08:12:18.505Z,99.99
2018-08-28T08:13:18.490Z,99.99
2018-08-28T08:14:18.395Z,99.99
2018-08-28T08:15:18.634Z,99.99
2018-08-28T08:16:18.527Z,99.99
2018-08-28T08:17:18.326Z,99.99
2018-08-28T08:18:18.297Z,99.69
2018-08-28T08:19:18.337Z,98.92
2018-08-28T08:20:18.525Z,97.86
2018-08-28T08:21:18.561Z,98.34
2018-08-28T08:22:18.449Z,99.11
2018-08-28T08:23:18.317Z,98.14
2018-08-28T08:24:18.223Z,98.29
2018-08-28T08:25:18.263Z,99.35
2018-08-28T08:26:18.248Z,99.78
2018-08-28T08:27:18.487Z,99.49
2018-08-28T08:28:18.374Z,98.34
2018-08-28T08:29:18.164Z,98.34
2018-08-28T08:30:18.153Z,95.94
2018-08-28T08:31:18.191Z,96.03
2018-08-28T08:32:18.182Z,96.17
2018-08-28T08:33:18.418Z,97.19
2018-08-28T08:34:18.106Z,97.67
2018-08-28T08:35:18.120Z,97.19
2018-08-28T08:36:18.082Z,95.84
2018-08-28T08:37:18.122Z,96.61
2018-08-28T08:38:18.110Z,98.44
2018-08-28T08:39:18.404Z,98.14
2018-08-28T08:40:18.035Z,96.75
2018-08-28T08:41:18.028Z,96.56
2018-08-28T08:42:18.016Z,96.17
2018-08-28T08:43:18.127Z,95.69
2018-08-28T08:44:18.043Z,94.25
2018-08-28T08:45:18.417Z,93.52
2018-08-28T08:46:18.053Z,91.89
2018-08-28T08:47:18.036Z,91.89
2018-08-28T08:48:18.032Z,93.24
2018-08-28T08:49:17.932Z,92.51
2018-08-28T08:50:17.991Z,89.39
2018-08-28T08:51:18.366Z,90.44
2018-08-28T08:52:17.898Z,91.26
2018-08-28T08:53:17.889Z,92.51
2018-08-28T08:54:17.876Z,91.89
2018-08-28T08:55:17.946Z,92.37
2018-08-28T08:56:17.944Z,93.29
2018-08-28T08:57:18.009Z,94.06
2018-08-28T08:58:18.262Z,94.59
2018-08-28T08:59:17.909Z,92.85
2018-08-28T09:00:17.891Z,92.08
2018-08-28T09:01:17.890Z,92.08
2018-08-28T09:02:17.792Z,92.99
2018-08-28T09:03:17.836Z,92.85
2018-08-28T09:04:17.824Z,87.83
2018-08-28T09:05:18.107Z,88.51
2018-08-28T09:06:17.751Z,88.07
2018-08-28T09:07:17.736Z,86.29
2018-08-28T09:08:17.728Z,88.02
2018-08-28T09:09:17.794Z,89.61
2018-08-28T09:10:17.835Z,88.89
2018-08-28T09:11:17.823Z,87.88
2018-08-28T09:12:18.034Z,89.53
2018-08-28T09:13:17.679Z,88.70
2018-08-28T09:14:17.665Z,87.59
2018-08-28T09:15:17.657Z,84.50
2018-08-28T09:16:17.642Z,84.16
2018-08-28T09:17:17.686Z,83.44
2018-08-28T09:18:17.672Z,83.05
2018-08-28T09:19:17.972Z,81.41
2018-08-28T09:20:17.609Z,81.90
2018-08-28T09:21:18.203Z,84.75
2018-08-28T09:22:18.192Z,86.19
2018-08-28T09:23:17.676Z,85.46
2018-08-28T09:24:17.564Z,82.51
2018-08-28T09:25:17.555Z,82.71
2018-08-28T09:26:17.999Z,80.62
2018-08-28T09:27:17.533Z,81.30
2018-08-28T09:28:17.525Z,80.28
2018-08-28T09:29:17.569Z,80.71
2018-08-28T09:30:17.554Z,81.19
2018-08-28T09:31:17.702Z,74.90
2018-08-28T09:32:19.430Z,78.87
2018-08-28T09:35:17.518Z,75.97
2018-08-28T09:37:17.534Z,73.80
2018-08-28T09:38:17.531Z,73.86
2018-08-28T09:39:17.738Z,73.35
2018-08-28T09:40:17.413Z,76.43
2018-08-28T09:41:17.404Z,77.11
2018-08-28T09:42:17.395Z,76.68
2018-08-28T09:43:17.437Z,79.06
2018-08-28T09:44:17.497Z,81.37
2018-08-28T09:45:17.756Z,80.22
2018-08-28T09:46:17.365Z,81.09
2018-08-28T09:47:17.353Z,78.71
2018-08-28T09:48:17.502Z,77.01
2018-08-28T09:49:17.339Z,75.51
2018-08-28T09:51:17.674Z,72.64
2018-08-28T09:52:17.354Z,71.68
2018-08-28T09:53:17.299Z,72.94
2018-08-28T09:54:17.284Z,72.97
2018-08-28T09:55:17.286Z,74.16
2018-08-28T09:56:17.269Z,75.22
2018-08-28T09:57:17.726Z,74.37
2018-08-28T09:58:17.333Z,76.40
2018-08-28T09:59:17.241Z,78.48
2018-08-28T10:00:17.247Z,78.77
2018-08-28T10:01:17.307Z,79.83
2018-08-28T10:02:17.296Z,79.41
2018-08-28T10:03:17.559Z,79.31
2018-08-28T10:04:17.254Z,80.27
2018-08-28T10:05:17.241Z,79.17
2018-08-28T10:06:17.185Z,79.46
2018-08-28T10:07:17.173Z,81.01
2018-08-28T10:08:17.164Z,81.54
2018-08-28T10:09:17.499Z,80.77
2018-08-28T10:10:17.190Z,82.21
2018-08-28T10:11:17.178Z,80.58
2018-08-28T10:12:17.121Z,82.60
2018-08-28T10:13:17.120Z,87.51
2018-08-28T10:14:17.102Z,89.53
2018-08-28T10:15:17.442Z,90.30
2018-08-28T10:16:17.125Z,90.40
2018-08-28T10:17:17.126Z,90.40
2018-08-28T10:18:17.144Z,91.46
2018-08-28T10:19:17.126Z,91.31
2018-08-28T10:20:17.116Z,90.59
2018-08-28T10:21:17.456Z,90.35
2018-08-28T10:22:17.091Z,90.40
2018-08-28T10:23:17.010Z,89.43
2018-08-28T10:24:17.003Z,88.43
2018-08-28T10:25:16.988Z,89.63
2018-08-28T10:26:16.970Z,90.01
2018-08-28T10:27:17.309Z,87.80
2018-08-28T10:28:16.998Z,87.99
2018-08-28T10:29:16.988Z,87.60
2018-08-28T10:30:16.971Z,87.99
2018-08-28T10:31:16.913Z,89.43
2018-08-28T10:32:17.023Z,88.23
2018-08-28T10:33:16.892Z,87.07
2018-08-28T10:34:16.930Z,84.28
2018-08-28T10:35:16.918Z,86.30
2018-08-28T10:36:16.915Z,85.57
2018-08-28T10:37:16.853Z,84.11
2018-08-28T10:38:16.925Z,82.36
2018-08-28T10:39:17.128Z,76.12
2018-08-28T10:40:16.817Z,72.88
2018-08-28T10:41:16.805Z,71.88
2018-08-28T10:42:16.845Z,72.13
2018-08-28T10:43:16.884Z,72.38
2018-08-28T10:44:16.773Z,71.48
2018-08-28T10:45:16.818Z,73.11
2018-08-28T10:46:17.072Z,73.08
2018-08-28T10:47:16.742Z,74.33
2018-08-28T10:48:16.734Z,75.78
2018-08-28T10:49:16.773Z,73.75
2018-08-28T10:50:16.720Z,74.49
2018-08-28T10:51:16.721Z,75.84
2018-08-28T10:52:17.003Z,76.23
2018-08-28T10:53:16.686Z,76.80
2018-08-28T10:54:16.669Z,76.32
2018-08-28T10:55:16.914Z,74.68
2018-08-28T10:56:16.703Z,76.03
2018-08-28T10:57:16.644Z,73.62
2018-08-28T10:58:16.835Z,73.82
2018-08-28T10:59:17.044Z,73.72
2018-08-28T11:00:16.814Z,74.10
2018-08-28T11:01:16.651Z,74.58
2018-08-28T11:02:19.660Z,74.88
2018-08-28T11:03:16.581Z,74.58
2018-08-28T11:04:16.569Z,76.32
2018-08-28T11:05:16.566Z,76.42
2018-08-28T11:06:16.903Z,74.58
2018-08-28T11:07:16.739Z,74.40
2018-08-28T11:08:16.948Z,74.82
2018-08-28T11:09:16.570Z,74.24
2018-08-28T11:10:16.506Z,73.25
2018-08-28T11:11:16.509Z,70.54
2018-08-28T11:12:16.795Z,70.16
2018-08-28T11:13:16.475Z,69.71
2018-08-28T11:14:16.517Z,70.16
2018-08-28T11:15:16.710Z,70.45
2018-08-28T11:16:16.645Z,69.45
2018-08-28T11:17:16.445Z,69.00
2018-08-28T11:18:16.722Z,66.63
2018-08-28T11:19:16.412Z,65.78
2018-08-28T11:20:16.404Z,64.27
2018-08-28T11:21:16.492Z,63.43
2018-08-28T11:22:16.407Z,61.27
2018-08-28T11:23:16.453Z,64.14
2018-08-28T11:24:16.666Z,65.66
2018-08-28T11:25:16.361Z,66.88
2018-08-28T11:26:16.394Z,66.49
2018-08-28T11:27:16.388Z,67.23
2018-08-28T11:28:16.484Z,67.62
2018-08-28T11:29:16.418Z,68.59
2018-08-28T11:30:16.693Z,68.97
2018-08-28T11:31:16.419Z,68.74
2018-08-28T11:32:16.372Z,69.51
2018-08-28T11:33:16.329Z,70.19
2018-08-28T11:34:16.318Z,70.09
2018-08-28T11:35:16.262Z,70.86
2018-08-28T11:36:16.550Z,71.64
2018-08-28T11:37:16.241Z,71.44
2018-08-28T11:38:16.240Z,71.83
2018-08-28T11:39:16.271Z,70.48
2018-08-28T11:40:16.260Z,70.19
2018-08-28T11:41:16.254Z,71.31
2018-08-28T11:43:16.484Z,71.50
2018-08-28T11:44:16.172Z,71.41
2018-08-28T11:45:16.216Z,72.18
2018-08-28T11:46:16.204Z,72.02
2018-08-28T11:47:16.274Z,72.12
2018-08-28T11:48:16.221Z,71.79
2018-08-28T11:49:16.712Z,71.70
2018-08-28T11:50:16.192Z,72.69
2018-08-28T11:51:16.151Z,71.83
2018-08-28T11:52:16.143Z,73.24
2018-08-28T11:53:16.169Z,72.18
2018-08-28T11:54:16.074Z,72.18
2018-08-28T11:55:16.367Z,71.89
2018-08-28T11:56:16.061Z,71.89
2018-08-28T11:57:16.088Z,72.75
2018-08-28T11:58:16.083Z,71.92
2018-08-28T11:59:16.130Z,71.60
2018-08-28T12:00:16.005Z,71.89
2018-08-28T12:01:16.294Z,71.44
2018-08-28T12:02:15.983Z,71.50
2018-08-28T12:03:15.973Z,73.24
2018-08-28T12:06:07.420Z,74.97
2018-08-28T12:08:09.025Z,75.65
2018-08-28T12:09:12.238Z,75.74
2018-08-28T12:10:06.170Z,76.51
2018-08-28T12:11:40.071Z,78.00
2018-08-28T12:12:06.142Z,77.13
2018-08-28T12:13:06.613Z,78.00
2018-08-28T12:14:05.919Z,74.14
2018-08-28T12:15:07.358Z,74.43
2018-08-28T12:16:05.947Z,75.49
2018-08-28T12:18:12.147Z,76.26
2018-08-28T12:19:05.865Z,74.66
2018-08-28T12:20:25.089Z,73.09
2018-08-28T12:21:06.522Z,69.59
2018-08-28T12:22:05.834Z,67.79
2018-08-28T12:23:06.757Z,65.85
2018-08-28T12:24:05.819Z,65.56
2018-08-28T12:25:07.238Z,64.34
2018-08-28T12:26:09.863Z,62.69
2018-08-28T12:27:06.412Z,63.34
2018-08-28T12:28:08.808Z,65.72
2018-08-28T12:29:06.631Z,67.08
2018-08-28T12:30:12.022Z,66.98
2018-08-28T12:31:26.172Z,67.56
2018-08-28T12:32:05.736Z,67.08
2018-08-28T12:34:06.334Z,67.24
2018-08-28T12:35:07.424Z,69.04
2018-08-28T12:36:05.777Z,71.74
2018-08-28T12:37:08.869Z,69.87
2018-08-28T12:38:08.714Z,73.54
2018-08-28T12:39:05.685Z,71.38
2018-08-28T12:41:50.746Z,71.92
2018-08-28T12:42:50.531Z,73.27
2018-08-28T12:43:50.597Z,72.89
2018-08-28T12:44:51.119Z,73.75
2018-08-28T12:45:52.240Z,73.95
2018-08-28T12:46:53.536Z,75.10
2018-08-28T12:47:51.091Z,75.97
2018-08-28T12:48:56.740Z,76.93
2018-08-28T12:49:50.671Z,74.62
2018-08-28T12:50:50.459Z,74.43
2018-08-28T12:51:50.946Z,74.33
2018-08-28T12:52:51.043Z,73.08
2018-08-28T12:53:50.432Z,74.10
2018-08-28T12:54:50.474Z,73.33
2018-08-28T12:55:51.819Z,74.24
2018-08-28T12:56:53.426Z,75.78
2018-08-28T12:57:53.740Z,74.24
2018-08-28T12:58:51.788Z,74.91
2018-08-28T12:59:53.413Z,74.62
2018-08-28T13:00:50.364Z,73.75
2018-08-28T13:01:50.547Z,73.47
2018-08-28T13:02:50.331Z,74.62
2018-08-28T13:03:50.630Z,73.18